createdAt,value
2019-04-20T00:00:44.841Z,39.5
2019-04-20T00:01:56.846Z,39.7
2019-04-20T00:03:08.977Z,39.6
2019-04-20T00:04:21.077Z,39.6
2019-04-20T00:05:33.314Z,39.6
2019-04-20T00:06:45.533Z,39.5
2019-04-20T00:07:58.245Z,39.7
2019-04-20T00:09:09.967Z,39.8
2019-04-20T00:10:22.068Z,39.7
2019-04-20T00:11:34.345Z,39.8
2019-04-20T00:12:46.468Z,39.8
2019-04-20T00:13:58.724Z,40
2019-04-20T00:15:10.920Z,40.1
2019-04-20T00:16:23.027Z,40.2
2019-04-20T00:17:35.345Z,40.1
2019-04-20T00:18:47.566Z,40.3
2019-04-20T00:19:59.804Z,40.5
2019-04-20T00:21:11.939Z,40.5
2019-04-20T00:22:23.991Z,40.4
2019-04-20T00:23:36.332Z,40.5
2019-04-20T00:24:48.428Z,40.6
2019-04-20T00:26:00.696Z,40.6
2019-04-20T00:27:12.995Z,40.8
2019-04-20T00:28:25.109Z,40.8
2019-04-20T00:29:37.283Z,40.9
2019-04-20T00:30:49.459Z,41
2019-04-20T00:32:01.566Z,41.1
2019-04-20T00:33:13.764Z,41.3
2019-04-20T00:34:25.960Z,41.4
2019-04-20T00:35:38.202Z,41.6
2019-04-20T00:36:50.438Z,41.6
2019-04-20T00:38:02.534Z,41.7
2019-04-20T00:39:19.202Z,41.9
2019-04-20T00:40:27.154Z,42
2019-04-20T00:41:39.203Z,42.2
2019-04-20T00:42:51.364Z,42.3
2019-04-20T00:44:03.524Z,42.4
2019-04-20T00:45:15.835Z,42.5
2019-04-20T00:46:27.925Z,42.5
2019-04-20T00:47:40.208Z,42.7
2019-04-20T00:48:52.329Z,42.6
2019-04-20T00:50:04.609Z,42.7
2019-04-20T00:51:16.800Z,42.9
2019-04-20T00:52:34.292Z,42.8
2019-04-20T00:53:41.104Z,42.8
2019-04-20T00:54:53.368Z,42.9
2019-04-20T00:56:06.195Z,43
2019-04-20T00:57:17.841Z,43
2019-04-20T00:58:29.876Z,43.2
2019-04-20T00:59:42.130Z,43.1
2019-04-20T01:00:54.243Z,43.2
2019-04-20T01:02:06.550Z,43.2
2019-04-20T01:03:18.821Z,43.4
2019-04-20T01:04:30.892Z,43.5
2019-04-20T01:05:43.041Z,43.4
2019-04-20T01:06:56.104Z,43.5
2019-04-20T01:08:07.456Z,43.4
2019-04-20T01:09:19.699Z,43.5
2019-04-20T01:10:31.868Z,43.6
2019-04-20T01:11:44.149Z,43.8
2019-04-20T01:12:56.190Z,43.9
2019-04-20T01:14:08.415Z,43.9
2019-04-20T01:15:20.706Z,44.1
2019-04-20T01:16:32.879Z,44.1
2019-04-20T01:17:44.982Z,44.2
2019-04-20T01:18:57.257Z,44.3
2019-04-20T01:20:09.386Z,44.3
2019-04-20T01:21:21.629Z,44.4
2019-04-20T01:22:35.079Z,44.5
2019-04-20T01:23:46.062Z,44.4
2019-04-20T01:24:58.188Z,44.6
2019-04-20T01:26:10.616Z,44.6
2019-04-20T01:27:23.219Z,44.5
2019-04-20T01:28:34.743Z,44.7
2019-04-20T01:29:46.930Z,44.8
2019-04-20T01:30:59.226Z,44.8
2019-04-20T01:32:11.419Z,44.7
2019-04-20T01:33:23.616Z,44.7
2019-04-20T01:34:35.963Z,44.7
2019-04-20T01:35:47.998Z,44.7
2019-04-20T01:37:00.126Z,44.8
2019-04-20T01:38:12.449Z,44.8
2019-04-20T01:39:24.589Z,44.8
2019-04-20T01:40:36.696Z,44.8
2019-04-20T01:41:48.894Z,44.9
2019-04-20T01:43:01.179Z,45
2019-04-20T01:44:13.320Z,45
2019-04-20T01:45:25.573Z,45
2019-04-20T01:46:37.760Z,44.9
2019-04-20T01:47:49.949Z,45
2019-04-20T01:49:04.895Z,45
2019-04-20T01:50:19.627Z,45
2019-04-20T01:51:26.643Z,45
2019-04-20T01:52:38.820Z,45
2019-04-20T01:53:50.849Z,45.1
2019-04-20T01:55:03.193Z,45.1
2019-04-20T01:56:15.412Z,45.1
2019-04-20T01:57:27.515Z,45.2
2019-04-20T01:58:39.634Z,45.1
2019-04-20T01:59:51.940Z,45.4
2019-04-20T02:01:03.998Z,45.4
2019-04-20T02:02:16.300Z,45.3
2019-04-20T02:03:28.516Z,45.4
2019-04-20T02:04:40.711Z,45.4
2019-04-20T02:05:52.893Z,45.4
2019-04-20T02:07:05.068Z,45.4
2019-04-20T02:08:17.192Z,45.4
2019-04-20T02:09:29.468Z,45.5
2019-04-20T02:10:41.597Z,45.5
2019-04-20T02:11:53.913Z,45.6
2019-04-20T02:13:06.023Z,45.6
2019-04-20T02:14:18.381Z,45.6
2019-04-20T02:16:42.536Z,45.6
2019-04-20T02:17:54.751Z,45.6
2019-04-20T02:19:07.040Z,45.8
2019-04-20T02:20:19.146Z,45.8
2019-04-20T02:21:31.443Z,45.9
2019-04-20T02:22:43.524Z,45.9
2019-04-20T02:23:55.815Z,46
2019-04-20T02:25:07.899Z,46
2019-04-20T02:26:20.261Z,45.9
2019-04-20T02:27:32.472Z,46
2019-04-20T02:28:44.503Z,45.9
2019-04-20T02:29:56.679Z,46
2019-04-20T02:31:09.052Z,46
2019-04-20T02:32:21.089Z,46
2019-04-20T02:33:33.406Z,46
2019-04-20T02:34:45.446Z,46
2019-04-20T02:35:57.813Z,46
2019-04-20T02:37:09.855Z,46
2019-04-20T02:38:22.142Z,46
2019-04-20T02:39:34.331Z,46
2019-04-20T02:40:46.819Z,46
2019-04-20T02:41:58.643Z,46.2
2019-04-20T02:43:10.972Z,46.2
2019-04-20T02:44:23.041Z,46.4
2019-04-20T02:45:35.372Z,46.5
2019-04-20T02:46:47.418Z,46.5
2019-04-20T02:47:59.634Z,46.5
2019-04-20T02:49:11.815Z,46.6
2019-04-20T02:50:24.097Z,46.4
2019-04-20T02:51:36.341Z,46.4
2019-04-20T02:52:48.501Z,46.5
2019-04-20T02:54:00.724Z,46.4
2019-04-20T02:55:12.922Z,46.5
2019-04-20T02:56:27.491Z,46.2
2019-04-20T02:57:37.243Z,46.4
2019-04-20T02:58:49.560Z,46.5
2019-04-20T03:00:01.569Z,46.5
2019-04-20T03:01:13.777Z,46.2
2019-04-20T03:02:26.055Z,46.4
2019-04-20T03:03:38.242Z,46.4
2019-04-20T03:04:50.551Z,46.2
2019-04-20T03:06:02.581Z,46.3
2019-04-20T03:07:14.904Z,46.4
2019-04-20T03:08:27.013Z,46.4
2019-04-20T03:09:39.130Z,46.4
2019-04-20T03:10:51.364Z,46.5
2019-04-20T03:12:03.649Z,46.6
2019-04-20T03:13:15.788Z,46.7
2019-04-20T03:14:28.080Z,46.7
2019-04-20T03:15:40.181Z,46.7
2019-04-20T03:16:52.310Z,46.9
2019-04-20T03:18:04.565Z,46.8
2019-04-20T03:19:16.866Z,46.9
2019-04-20T03:20:28.989Z,46.8
2019-04-20T03:21:41.159Z,46.7
2019-04-20T03:22:53.311Z,46.9
2019-04-20T03:24:05.702Z,46.9
2019-04-20T03:25:17.634Z,47
2019-04-20T03:26:30.005Z,47
2019-04-20T03:27:42.197Z,47.1
2019-04-20T03:28:54.224Z,47.2
2019-04-20T03:30:06.424Z,47.3
2019-04-20T03:31:18.725Z,47.4
2019-04-20T03:32:30.893Z,47.4
2019-04-20T03:33:43.073Z,47.4
2019-04-20T03:34:55.169Z,47.3
2019-04-20T03:36:07.408Z,47.5
2019-04-20T03:37:19.564Z,47.6
2019-04-20T03:38:31.760Z,47.6
2019-04-20T03:39:44.042Z,47.5
2019-04-20T03:40:56.136Z,47.5
2019-04-20T03:42:08.432Z,47.6
2019-04-20T03:43:20.700Z,47.7
2019-04-20T03:44:32.754Z,47.5
2019-04-20T03:45:44.930Z,47.6
2019-04-20T03:46:58.483Z,47.6
2019-04-20T03:48:09.406Z,47.7
2019-04-20T03:49:21.570Z,47.6
2019-04-20T03:50:33.789Z,47.5
2019-04-20T03:51:46.036Z,47.5
2019-04-20T03:52:58.250Z,48
2019-04-20T03:54:10.290Z,47.9
2019-04-20T03:55:22.652Z,48
2019-04-20T03:56:34.778Z,48.1
2019-04-20T03:57:46.972Z,48
2019-04-20T03:58:59.050Z,48.1
2019-04-20T04:00:11.334Z,48
2019-04-20T04:01:23.426Z,48
2019-04-20T04:02:35.719Z,48.2
2019-04-20T04:03:48.026Z,48.2
2019-04-20T04:05:00.128Z,48.5
2019-04-20T04:06:12.299Z,48.4
2019-04-20T04:07:24.394Z,48.5
2019-04-20T04:08:36.711Z,48
2019-04-20T04:09:48.899Z,48.4
2019-04-20T04:11:01.266Z,48.2
2019-04-20T04:12:13.181Z,48.4
2019-04-20T04:13:25.352Z,48.5
2019-04-20T04:14:37.668Z,48.6
2019-04-20T04:15:49.858Z,48.5
2019-04-20T04:17:02.009Z,48.8
2019-04-20T04:18:14.231Z,48.8
2019-04-20T04:19:26.364Z,48.6
2019-04-20T04:20:38.521Z,49.1
2019-04-20T04:21:50.814Z,49.4
2019-04-20T04:23:02.987Z,49.5
2019-04-20T04:24:16.989Z,49.8
2019-04-20T04:25:27.541Z,49.8
2019-04-20T04:26:39.597Z,50.4
2019-04-20T04:27:51.939Z,50.2
2019-04-20T04:29:03.988Z,50.6
2019-04-20T04:30:16.126Z,50.8
2019-04-20T04:31:28.355Z,50.9
2019-04-20T04:32:40.469Z,50.8
2019-04-20T04:33:52.767Z,50.6
2019-04-20T04:35:04.846Z,50.4
2019-04-20T04:36:17.197Z,50.1
2019-04-20T04:37:29.257Z,50.1
2019-04-20T04:38:41.544Z,50.6
2019-04-20T04:39:53.954Z,50.6
2019-04-20T04:41:05.885Z,50.7
2019-04-20T04:42:18.095Z,50.3
2019-04-20T04:43:30.310Z,50.2
2019-04-20T04:44:42.399Z,50.7
2019-04-20T04:45:54.627Z,50.8
2019-04-20T04:47:06.804Z,50.9
2019-04-20T04:48:19.105Z,51.1
2019-04-20T04:49:31.170Z,51.1
2019-04-20T04:50:43.376Z,51.1
2019-04-20T04:52:00.384Z,51.7
2019-04-20T04:53:07.739Z,51.6
2019-04-20T04:54:19.947Z,51.6
2019-04-20T04:55:32.346Z,50.8
2019-04-20T04:56:44.422Z,50.8
2019-04-20T04:57:56.607Z,51
2019-04-20T04:59:08.722Z,51.1
2019-04-20T05:00:20.906Z,51.6
2019-04-20T05:01:33.097Z,51.6
2019-04-20T05:02:45.323Z,51.8
2019-04-20T05:03:57.616Z,51.8
2019-04-20T05:05:09.776Z,52.1
2019-04-20T05:06:21.904Z,52.2
2019-04-20T05:07:34.072Z,52.5
2019-04-20T05:08:46.258Z,52.9
2019-04-20T05:09:58.568Z,52.9
2019-04-20T05:11:10.702Z,53.6
2019-04-20T05:12:22.856Z,53.7
2019-04-20T05:13:35.037Z,54.1
2019-04-20T05:14:47.314Z,54.2
2019-04-20T05:15:59.528Z,54.2
2019-04-20T05:17:11.793Z,54.1
2019-04-20T05:18:23.805Z,54.5
2019-04-20T05:19:36.088Z,54.4
2019-04-20T05:20:48.192Z,54.7
2019-04-20T05:22:00.491Z,55.3
2019-04-20T05:23:12.572Z,55.2
2019-04-20T05:24:24.849Z,55.5
2019-04-20T05:25:36.991Z,55.1
2019-04-20T05:26:49.151Z,54.9
2019-04-20T05:28:01.456Z,55.7
2019-04-20T05:29:13.663Z,55.3
2019-04-20T05:30:25.851Z,55.5
2019-04-20T05:31:38.076Z,55.7
2019-04-20T05:32:50.156Z,55.5
2019-04-20T05:34:05.049Z,55.7
2019-04-20T05:35:14.516Z,55.4
2019-04-20T05:36:26.798Z,55.5
2019-04-20T05:37:39.021Z,55.3
2019-04-20T05:38:51.182Z,55.7
2019-04-20T05:40:03.393Z,55.3
2019-04-20T05:41:15.576Z,55.1
2019-04-20T05:42:27.792Z,55.1
2019-04-20T05:43:39.984Z,54.8
2019-04-20T05:44:52.068Z,54.5
2019-04-20T05:46:04.267Z,54.5
2019-04-20T05:47:16.557Z,54.1
2019-04-20T05:48:28.752Z,53.8
2019-04-20T05:49:40.962Z,53.8
2019-04-20T05:50:53.128Z,53.9
2019-04-20T05:52:05.515Z,53.8
2019-04-20T05:53:17.424Z,53.8
2019-04-20T05:54:29.608Z,53.9
2019-04-20T05:55:42.336Z,53.4
2019-04-20T05:56:53.993Z,53.4
2019-04-20T05:58:06.343Z,53
2019-04-20T05:59:18.419Z,52.4
2019-04-20T06:00:30.680Z,51.8
2019-04-20T06:01:42.784Z,51
2019-04-20T06:02:54.967Z,50.6
2019-04-20T06:04:07.272Z,50.1
2019-04-20T06:05:19.429Z,49.1
2019-04-20T06:06:31.550Z,48.7
2019-04-20T06:07:43.754Z,48.2
2019-04-20T06:08:56.002Z,47.7
2019-04-20T06:10:08.323Z,47.7
2019-04-20T06:11:20.363Z,47.4
2019-04-20T06:12:32.610Z,46.8
2019-04-20T06:13:44.725Z,46.5
2019-04-20T06:14:57.058Z,46.5
2019-04-20T06:16:09.176Z,46.1
2019-04-20T06:17:21.317Z,46
2019-04-20T06:18:33.478Z,45.7
2019-04-20T06:19:45.765Z,45.4
2019-04-20T06:20:57.900Z,45.3
2019-04-20T06:22:10.059Z,44.6
2019-04-20T06:23:22.467Z,44.2
2019-04-20T06:24:34.476Z,44.1
2019-04-20T06:25:46.669Z,43.9
2019-04-20T06:26:58.934Z,43.8
2019-04-20T06:28:11.288Z,43.6
2019-04-20T06:29:23.403Z,43.3
2019-04-20T06:30:35.524Z,42.8
2019-04-20T06:31:47.656Z,42.7
2019-04-20T06:32:59.891Z,42.2
2019-04-20T06:34:12.081Z,42.2
2019-04-20T06:35:24.223Z,41.9
2019-04-20T06:36:36.510Z,41.8
2019-04-20T06:37:48.697Z,41.4
2019-04-20T06:39:00.783Z,41.2
2019-04-20T06:40:13.073Z,40.9
2019-04-20T06:41:25.216Z,40.6
2019-04-20T06:42:37.401Z,40.6
2019-04-20T06:43:49.726Z,40.8
2019-04-20T06:45:01.742Z,40.6
2019-04-20T06:46:13.957Z,40.3
2019-04-20T06:47:26.133Z,40.1
2019-04-20T06:48:38.401Z,39.9
2019-04-20T06:49:50.565Z,39.4
2019-04-20T06:51:02.892Z,39.3
2019-04-20T06:52:15.027Z,38.5
2019-04-20T06:53:27.212Z,38.4
2019-04-20T06:54:39.457Z,38.1
2019-04-20T06:55:55.602Z,38
2019-04-20T06:57:03.704Z,37.8
2019-04-20T06:58:15.892Z,38
2019-04-20T06:59:28.103Z,37.6
2019-04-20T07:00:40.348Z,37.4
2019-04-20T07:01:52.586Z,37.4
2019-04-20T07:03:04.825Z,37
2019-04-20T07:04:16.968Z,36.7
2019-04-20T07:05:29.019Z,36.6
2019-04-20T07:06:41.242Z,36.4
2019-04-20T07:07:53.525Z,36.1
2019-04-20T07:09:05.597Z,36.2
2019-04-20T07:10:17.894Z,36
2019-04-20T07:11:30.005Z,35.9
2019-04-20T07:12:42.195Z,35.8
2019-04-20T07:13:54.513Z,35.7
2019-04-20T07:15:06.660Z,35.3
2019-04-20T07:16:19.603Z,35.3
2019-04-20T07:17:31.079Z,35
2019-04-20T07:18:43.151Z,35
2019-04-20T07:19:55.525Z,34.7
2019-04-20T07:21:07.641Z,34.5
2019-04-20T07:22:19.964Z,34.3
2019-04-20T07:23:31.939Z,34.7
2019-04-20T07:24:44.294Z,34.3
2019-04-20T07:25:57.059Z,34.3
2019-04-20T07:27:08.640Z,33.8
2019-04-20T07:28:20.808Z,33.3
2019-04-20T07:29:33.012Z,33.3
2019-04-20T07:30:45.089Z,33.1
2019-04-20T07:31:57.627Z,32.8
2019-04-20T07:33:09.523Z,33
2019-04-20T07:34:21.815Z,32.6
2019-04-20T07:35:33.855Z,32.9
2019-04-20T07:36:46.171Z,32.6
2019-04-20T07:37:58.272Z,32.5
2019-04-20T07:39:10.550Z,32.6
2019-04-20T07:40:22.724Z,32.4
2019-04-20T07:41:34.962Z,31.8
2019-04-20T07:42:47.125Z,31.5
2019-04-20T07:43:59.339Z,31.3
2019-04-20T07:45:11.446Z,31.2
2019-04-20T07:46:23.687Z,30.9
2019-04-20T07:47:35.886Z,30.8
2019-04-20T07:48:48.075Z,30.7
2019-04-20T07:50:00.187Z,30.4
2019-04-20T07:51:12.539Z,30.5
2019-04-20T07:52:24.711Z,30.5
2019-04-20T07:53:36.896Z,30.5
2019-04-20T07:54:49.051Z,30.4
2019-04-20T07:56:01.266Z,30.1
2019-04-20T07:57:13.480Z,29.8
2019-04-20T07:58:25.664Z,30
2019-04-20T07:59:37.779Z,29.4
2019-04-20T08:00:50.006Z,29.9
2019-04-20T08:02:02.209Z,28.9
2019-04-20T08:03:14.369Z,28.7
2019-04-20T08:04:26.733Z,29
2019-04-20T08:05:38.849Z,28.8
2019-04-20T08:06:50.950Z,28.4
2019-04-20T08:08:03.534Z,28.7
2019-04-20T08:09:15.309Z,27.1
2019-04-20T08:10:27.534Z,27.6
2019-04-20T08:11:39.678Z,26.3
2019-04-20T08:12:51.979Z,27.8
2019-04-20T08:14:04.100Z,28.2
2019-04-20T08:15:16.358Z,27.3
2019-04-20T08:16:28.599Z,26.7
2019-04-20T08:17:40.663Z,27.3
2019-04-20T08:18:52.893Z,27.1
2019-04-20T08:20:05.289Z,27.2
2019-04-20T08:21:17.321Z,26.7
2019-04-20T08:22:29.425Z,26.8
2019-04-20T08:23:41.759Z,26.7
2019-04-20T08:24:55.401Z,26.6
2019-04-20T08:26:06.742Z,26.1
2019-04-20T08:27:18.490Z,25.9
2019-04-20T08:28:30.488Z,25.5
2019-04-20T08:29:42.695Z,25.4
2019-04-20T08:30:54.881Z,25.7
2019-04-20T08:32:07.039Z,25.5
2019-04-20T08:33:19.261Z,25.5
2019-04-20T08:34:31.479Z,25.4
2019-04-20T08:35:43.569Z,25.1
2019-04-20T08:36:55.812Z,25.1
2019-04-20T08:38:07.956Z,25.3
2019-04-20T08:39:20.316Z,25.2
2019-04-20T08:40:33.995Z,24.6
2019-04-20T08:41:44.584Z,25.2
2019-04-20T08:42:56.759Z,25.4
2019-04-20T08:44:09.039Z,25.3
2019-04-20T08:45:21.119Z,25
2019-04-20T08:46:33.360Z,25.1
2019-04-20T08:47:45.562Z,24.9
2019-04-20T08:48:57.793Z,25
2019-04-20T08:50:09.982Z,24.8
2019-04-20T08:51:22.224Z,24.8
2019-04-20T08:52:34.395Z,24.7
2019-04-20T08:53:46.507Z,24.9
2019-04-20T08:54:58.775Z,25
2019-04-20T08:56:10.995Z,24.8
2019-04-20T08:57:23.148Z,24.5
2019-04-20T08:58:35.282Z,24.7
2019-04-20T08:59:47.449Z,24.4
2019-04-20T09:00:59.659Z,24.6
2019-04-20T09:02:11.872Z,24.3
2019-04-20T09:03:24.072Z,24.2
2019-04-20T09:04:36.513Z,24.2
2019-04-20T09:05:48.440Z,24.5
2019-04-20T09:07:00.804Z,24.7
2019-04-20T09:08:12.857Z,24.5
2019-04-20T09:09:25.035Z,24.5
2019-04-20T09:10:37.392Z,24.4
2019-04-20T09:11:49.444Z,24.6
2019-04-20T09:13:01.729Z,24.6
2019-04-20T09:14:13.875Z,24.4
2019-04-20T09:15:26.072Z,24.5
2019-04-20T09:16:38.282Z,24.4
2019-04-20T09:17:50.521Z,24.4
2019-04-20T09:19:02.570Z,24.2
2019-04-20T09:20:14.868Z,24.4
2019-04-20T09:21:27.076Z,23.7
2019-04-20T09:22:39.331Z,24
2019-04-20T09:23:55.392Z,23.8
2019-04-20T09:25:03.672Z,23.9
2019-04-20T09:26:15.806Z,23.8
2019-04-20T09:27:27.940Z,23.9
2019-04-20T09:28:40.254Z,23.8
2019-04-20T09:29:52.330Z,24
2019-04-20T09:31:04.513Z,23.9
2019-04-20T09:32:16.842Z,23.6
2019-04-20T09:33:28.934Z,23.6
2019-04-20T09:34:41.287Z,23.7
2019-04-20T09:35:53.326Z,23.9
2019-04-20T09:37:05.587Z,23.7
2019-04-20T09:38:17.810Z,23.5
2019-04-20T09:39:29.989Z,23.8
2019-04-20T09:40:42.224Z,23.7
2019-04-20T09:41:54.348Z,23.4
2019-04-20T09:43:06.528Z,23.4
2019-04-20T09:44:18.784Z,23.3
2019-04-20T09:45:31.022Z,23
2019-04-20T09:46:43.073Z,23.1
2019-04-20T09:47:55.232Z,22.9
2019-04-20T09:49:07.522Z,22.9
2019-04-20T09:50:19.625Z,22.8
2019-04-20T09:51:31.842Z,22.4
2019-04-20T09:52:44.195Z,22.4
2019-04-20T09:53:56.256Z,22.3
2019-04-20T09:55:08.473Z,22.2
2019-04-20T09:56:20.911Z,22.3
2019-04-20T09:57:32.857Z,22.1
2019-04-20T09:58:45.102Z,22.3
2019-04-20T09:59:57.210Z,22.3
2019-04-20T10:01:09.396Z,22.1
2019-04-20T10:02:21.619Z,21.8
2019-04-20T10:03:33.880Z,21.8
2019-04-20T10:04:46.078Z,22
2019-04-20T10:05:58.175Z,21.9
2019-04-20T10:07:10.367Z,22
2019-04-20T10:08:22.563Z,21.9
2019-04-20T10:09:34.858Z,22.4
2019-04-20T10:10:47.070Z,21.9
2019-04-20T10:11:59.282Z,22.1
2019-04-20T10:13:11.371Z,21.9
2019-04-20T10:14:24.569Z,21.6
2019-04-20T10:15:35.823Z,21.4
2019-04-20T10:16:48.019Z,21.1
2019-04-20T10:18:00.456Z,21.1
2019-04-20T10:19:12.323Z,21.1
2019-04-20T10:20:24.528Z,20.9
2019-04-20T10:21:37.714Z,20.6
2019-04-20T10:22:49.000Z,20.2
2019-04-20T10:24:01.083Z,20.4
2019-04-20T10:25:13.497Z,20.3
2019-04-20T10:26:25.479Z,20.5
2019-04-20T10:27:37.675Z,20
2019-04-20T10:28:49.973Z,20.2
2019-04-20T10:30:04.255Z,20.1
2019-04-20T10:31:17.530Z,19.8
2019-04-20T10:32:26.652Z,20
2019-04-20T10:33:38.782Z,20.2
2019-04-20T10:34:50.878Z,20.2
2019-04-20T10:36:03.079Z,20.1
2019-04-20T10:37:15.356Z,20.1
2019-04-20T10:38:27.535Z,20.1
2019-04-20T10:39:39.686Z,20.3
2019-04-20T10:40:51.963Z,20.1
2019-04-20T10:42:04.146Z,20.1
2019-04-20T10:43:16.250Z,19.9
2019-04-20T10:44:28.525Z,20.2
2019-04-20T10:45:40.625Z,19.8
2019-04-20T10:46:52.999Z,19.6
2019-04-20T10:48:05.054Z,19.4
2019-04-20T10:49:17.313Z,19.3
2019-04-20T10:50:29.402Z,19.1
2019-04-20T10:51:41.739Z,18.4
2019-04-20T10:52:53.908Z,18.8
2019-04-20T10:54:06.140Z,18.5
2019-04-20T10:55:18.189Z,18.3
2019-04-20T10:56:30.705Z,18.4
2019-04-20T10:57:42.585Z,18.3
2019-04-20T10:58:54.878Z,18.5
2019-04-20T11:00:07.043Z,18.9
2019-04-20T11:01:19.268Z,18.9
2019-04-20T11:02:31.457Z,18.8
2019-04-20T11:03:43.581Z,18.6
2019-04-20T11:04:55.928Z,18.6
2019-04-20T11:06:08.114Z,18.1
2019-04-20T11:07:20.203Z,18
2019-04-20T11:08:32.441Z,18.4
2019-04-20T11:09:45.992Z,18.7
2019-04-20T11:10:56.922Z,18.8
2019-04-20T11:12:08.936Z,18.4
2019-04-20T11:13:21.340Z,18.5
2019-04-20T11:14:33.355Z,18.4
2019-04-20T11:15:45.600Z,18.5
2019-04-20T11:16:57.803Z,17.8
2019-04-20T11:18:09.903Z,17.8
2019-04-20T11:19:22.107Z,18
2019-04-20T11:20:34.408Z,18
2019-04-20T11:21:46.510Z,17.7
2019-04-20T11:22:58.819Z,17.9
2019-04-20T11:24:10.967Z,18.3
2019-04-20T11:25:23.170Z,17.4
2019-04-20T11:26:37.138Z,17.5
2019-04-20T11:27:50.312Z,17.8
2019-04-20T11:28:59.770Z,17.8
2019-04-20T11:30:12.010Z,17.9
2019-04-20T11:31:24.047Z,17.1
2019-04-20T11:32:36.368Z,17.1
2019-04-20T11:33:48.443Z,17.4
2019-04-20T11:35:05.489Z,17.3
2019-04-20T11:36:12.837Z,17.4
2019-04-20T11:37:25.121Z,17.7
2019-04-20T11:38:37.236Z,17.9
2019-04-20T11:39:49.615Z,18.2
2019-04-20T11:41:01.709Z,18.4
2019-04-20T11:42:13.932Z,18.6
2019-04-20T11:43:26.130Z,18.6
2019-04-20T11:44:38.333Z,18.7
2019-04-20T11:45:50.745Z,19.3
2019-04-20T11:47:04.414Z,19.6
2019-04-20T11:48:14.790Z,19.9
2019-04-20T11:49:26.985Z,20.3
2019-04-20T11:50:39.171Z,20.7
2019-04-20T11:51:51.516Z,20.9
2019-04-20T11:53:03.689Z,20.9
2019-04-20T11:54:15.793Z,21.2
2019-04-20T11:55:28.785Z,21.4
2019-04-20T11:56:40.541Z,21.8
2019-04-20T11:57:52.577Z,22.1
2019-04-20T11:59:04.556Z,22.5
2019-04-20T12:00:16.747Z,22.5
2019-04-20T12:01:28.949Z,22.5
2019-04-20T12:02:41.139Z,22.4
2019-04-20T12:03:53.439Z,22.6
2019-04-20T12:05:05.590Z,22.8
2019-04-20T12:06:21.911Z,23.2
2019-04-20T12:07:29.887Z,23.1
2019-04-20T12:08:42.075Z,23.4
2019-04-20T12:09:54.293Z,23.2
2019-04-20T12:11:06.606Z,23.6
2019-04-20T12:12:18.839Z,23.6
2019-04-20T12:13:30.965Z,23.9
2019-04-20T12:14:43.085Z,24
2019-04-20T12:15:55.247Z,24.1
2019-04-20T12:17:11.381Z,23.8
2019-04-20T12:18:19.907Z,23.9
2019-04-20T12:19:31.892Z,23.8
2019-04-20T12:20:44.135Z,23.8
2019-04-20T12:21:56.374Z,24
2019-04-20T12:23:08.414Z,24
2019-04-20T12:24:20.607Z,23.9
2019-04-20T12:26:45.104Z,24.2
2019-04-20T12:27:57.284Z,24
2019-04-20T12:29:09.510Z,23.9
2019-04-20T12:30:21.690Z,23.8
2019-04-20T12:31:33.804Z,23.8
2019-04-20T12:32:46.169Z,23.7
2019-04-20T12:33:58.240Z,23.9
2019-04-20T12:35:10.508Z,23.9
2019-04-20T12:36:22.546Z,24.3
2019-04-20T12:37:35.467Z,24.2
2019-04-20T12:38:47.107Z,24.2
2019-04-20T12:39:59.117Z,24.2
2019-04-20T12:41:11.573Z,24.2
2019-04-20T12:42:23.490Z,24.4
2019-04-20T12:43:35.714Z,24.3
2019-04-20T12:44:47.987Z,24.4
2019-04-20T12:46:00.083Z,24.3
2019-04-20T12:47:12.348Z,24.5
2019-04-20T12:48:24.468Z,24.4
2019-04-20T12:49:36.770Z,24.5
2019-04-20T12:50:48.911Z,24.6
2019-04-20T12:52:01.064Z,24.8
2019-04-20T12:53:13.404Z,24.8
2019-04-20T12:54:25.495Z,24.9
2019-04-20T12:55:37.720Z,24.7
2019-04-20T12:56:51.054Z,24.7
2019-04-20T12:58:02.147Z,24.8
2019-04-20T12:59:14.221Z,24.9
2019-04-20T13:00:26.419Z,24.9
2019-04-20T13:01:38.725Z,24.5
2019-04-20T13:02:50.817Z,24.3
2019-04-20T13:04:03.097Z,24.5
2019-04-20T13:05:15.319Z,24.4
2019-04-20T13:06:27.405Z,24.3
2019-04-20T13:07:39.764Z,24.1
2019-04-20T13:08:51.929Z,24.3
2019-04-20T13:10:04.051Z,24.1
2019-04-20T13:11:16.185Z,23.8
2019-04-20T13:12:28.392Z,23.8
2019-04-20T13:13:40.567Z,24.1
2019-04-20T13:14:52.821Z,24.1
2019-04-20T13:16:05.141Z,24.3
2019-04-20T13:17:17.234Z,24.4
2019-04-20T13:18:29.411Z,24.4
2019-04-20T13:19:41.621Z,24.2
2019-04-20T13:20:53.848Z,24
2019-04-20T13:22:05.932Z,23.8
2019-04-20T13:23:18.209Z,23.8
2019-04-20T13:24:30.410Z,23.7
2019-04-20T13:25:42.685Z,23.5
2019-04-20T13:26:54.834Z,24
2019-04-20T13:28:07.213Z,24.1
2019-04-20T13:29:19.183Z,23.8
2019-04-20T13:30:33.983Z,24.1
2019-04-20T13:31:46.739Z,23.9
2019-04-20T13:32:55.699Z,23.8
2019-04-20T13:34:07.922Z,24
2019-04-20T13:35:20.084Z,24.1
2019-04-20T13:36:32.376Z,24.1
2019-04-20T13:37:44.561Z,24
2019-04-20T13:38:56.657Z,24.1
2019-04-20T13:40:08.960Z,24
2019-04-20T13:41:21.345Z,24.1
2019-04-20T13:42:33.233Z,23.8
2019-04-20T13:43:45.456Z,23.6
2019-04-20T13:44:57.739Z,23.9
2019-04-20T13:46:09.838Z,23.8
2019-04-20T13:47:22.279Z,23.6
2019-04-20T13:48:34.235Z,23.5
2019-04-20T13:49:46.516Z,23.8
2019-04-20T13:50:58.614Z,23.7
2019-04-20T13:52:10.954Z,23.7
2019-04-20T13:53:23.122Z,23.7
2019-04-20T13:54:35.427Z,23.8
2019-04-20T13:55:47.972Z,23.5
2019-04-20T13:56:59.709Z,23.5
2019-04-20T13:58:11.963Z,23.5
2019-04-20T13:59:24.086Z,23.4
2019-04-20T14:00:36.199Z,23.5
2019-04-20T14:01:48.463Z,23.3
2019-04-20T14:03:04.894Z,23.4
2019-04-20T14:04:12.959Z,23.6
2019-04-20T14:05:25.090Z,23.7
2019-04-20T14:06:37.234Z,23.6
2019-04-20T14:07:49.338Z,23.8
2019-04-20T14:09:01.661Z,23.6
2019-04-20T14:10:13.821Z,23.5
2019-04-20T14:11:26.028Z,23.4
2019-04-20T14:12:38.116Z,23.5
2019-04-20T14:13:50.490Z,23.4
2019-04-20T14:15:02.600Z,23.5
2019-04-20T14:16:14.879Z,23.5
2019-04-20T14:17:27.026Z,23.4
2019-04-20T14:18:39.182Z,23.9
2019-04-20T14:19:51.461Z,24.1
2019-04-20T14:21:03.567Z,24.9
2019-04-20T14:22:15.774Z,24.4
2019-04-20T14:23:28.000Z,24.5
2019-04-20T14:24:40.074Z,24.1
2019-04-20T14:25:54.805Z,23.9
2019-04-20T14:27:04.457Z,24.1
2019-04-20T14:28:17.529Z,24
2019-04-20T14:29:28.926Z,24.1
2019-04-20T14:30:41.290Z,24
2019-04-20T14:31:53.262Z,24
2019-04-20T14:33:05.594Z,24.1
2019-04-20T14:34:19.686Z,24.3
2019-04-20T14:35:30.000Z,24.2
2019-04-20T14:36:42.006Z,24.2
2019-04-20T14:37:54.399Z,24.4
2019-04-20T14:39:06.424Z,24.3
2019-04-20T14:40:18.714Z,23.7
2019-04-20T14:41:30.895Z,24.2
2019-04-20T14:42:43.086Z,24.9
2019-04-20T14:43:55.180Z,24.3
2019-04-20T14:45:07.685Z,24.7
2019-04-20T14:46:19.661Z,25
2019-04-20T14:47:31.867Z,25
2019-04-20T14:48:43.951Z,24.9
2019-04-20T14:49:56.597Z,25.3
2019-04-20T14:51:08.357Z,24.9
2019-04-20T14:52:20.654Z,24.9
2019-04-20T14:53:32.993Z,24.8
2019-04-20T14:54:45.064Z,24.9
2019-04-20T14:55:57.197Z,24.9
2019-04-20T14:57:09.452Z,24.8
2019-04-20T14:58:21.599Z,24.7
2019-04-20T14:59:33.886Z,24.9
2019-04-20T15:00:45.914Z,25.1
2019-04-20T15:01:58.185Z,25.1
2019-04-20T15:03:10.301Z,25.4
2019-04-20T15:04:22.626Z,25.6
2019-04-20T15:05:34.785Z,25.6
2019-04-20T15:06:49.040Z,25.7
2019-04-20T15:07:59.064Z,25.7
2019-04-20T15:09:11.366Z,25.5
2019-04-20T15:10:24.530Z,25.4
2019-04-20T15:11:36.202Z,25.2
2019-04-20T15:12:47.844Z,25.2
2019-04-20T15:14:00.154Z,25.1
2019-04-20T15:15:12.256Z,25.3
2019-04-20T15:16:24.634Z,25.5
2019-04-20T15:17:36.752Z,25.2
2019-04-20T15:18:48.993Z,25.3
2019-04-20T15:20:01.315Z,25
2019-04-20T15:21:13.389Z,24.8
2019-04-20T15:22:25.580Z,25
2019-04-20T15:23:37.783Z,25.1
2019-04-20T15:24:49.843Z,25.2
2019-04-20T15:26:02.418Z,25.3
2019-04-20T15:27:14.298Z,25.4
2019-04-20T15:28:26.493Z,25.4
2019-04-20T15:29:38.671Z,25.4
2019-04-20T15:30:50.911Z,24.9
2019-04-20T15:32:02.974Z,24.7
2019-04-20T15:33:15.376Z,25.1
2019-04-20T15:34:27.388Z,25.4
2019-04-20T15:35:39.672Z,25.4
2019-04-20T15:36:51.738Z,25.6
2019-04-20T15:38:04.110Z,25.7
2019-04-20T15:39:16.136Z,25.8
2019-04-20T15:40:28.415Z,26
2019-04-20T15:41:40.634Z,26
2019-04-20T15:42:52.927Z,25.6
2019-04-20T15:44:04.907Z,25.1
2019-04-20T15:45:17.271Z,24.9
2019-04-20T15:46:32.228Z,25.1
2019-04-20T15:47:41.586Z,25.4
2019-04-20T15:48:53.714Z,25.5
2019-04-20T15:50:06.220Z,25.8
2019-04-20T15:51:18.150Z,25.9
2019-04-20T15:52:30.370Z,26.1
2019-04-20T15:53:42.626Z,26.3
2019-04-20T15:54:54.980Z,26.4
2019-04-20T15:56:07.134Z,26.6
2019-04-20T15:57:19.154Z,26.1
2019-04-20T15:58:31.323Z,25.5
2019-04-20T15:59:43.629Z,25.4
2019-04-20T16:00:55.808Z,25.4
2019-04-20T16:02:07.958Z,25.6
2019-04-20T16:03:20.046Z,25.4
2019-04-20T16:04:32.331Z,25.4
2019-04-20T16:05:44.603Z,25.4
2019-04-20T16:06:56.779Z,25.6
2019-04-20T16:08:08.823Z,25.8
2019-04-20T16:09:21.201Z,26